createdAt,value
2023-01-11T00:00:51.448Z,-0.60
2023-01-11T00:03:19.028Z,-0.70
2023-01-11T00:05:46.586Z,-0.60
2023-01-11T00:08:14.333Z,-0.60
2023-01-11T00:10:42.097Z,-0.60
2023-01-11T00:13:09.683Z,-0.50
2023-01-11T00:15:38.570Z,-0.50
2023-01-11T00:18:06.331Z,-0.50
2023-01-11T00:20:34.076Z,-0.40
2023-01-11T00:23:01.603Z,-0.40
2023-01-11T00:25:29.520Z,-0.40
2023-01-11T00:27:57.799Z,-0.30
2023-01-11T00:30:25.568Z,-0.30
2023-01-11T00:33:00.467Z,-0.40
2023-01-11T00:35:31.227Z,-0.40
2023-01-11T00:37:58.989Z,-0.40
2023-01-11T00:40:27.245Z,-0.30
2023-01-11T00:43:13.682Z,-0.20
2023-01-11T00:46:19.843Z,-0.20
2023-01-11T00:48:47.592Z,-0.20
2023-01-11T00:51:15.680Z,-0.10
2023-01-11T00:53:43.401Z,-0.10
2023-01-11T00:56:11.362Z,0.00
2023-01-11T00:58:39.042Z,-0.10
2023-01-11T01:01:08.712Z,-0.10
2023-01-11T01:03:36.502Z,-0.10
2023-01-11T01:06:04.370Z,-0.10
2023-01-11T01:08:32.037Z,-0.10
2023-01-11T01:10:59.701Z,0.00
2023-01-11T01:13:46.188Z,0.10
2023-01-11T01:16:13.798Z,0.10
2023-01-11T01:18:41.739Z,0.10
2023-01-11T01:21:41.538Z,0.10
2023-01-11T01:24:09.238Z,0.20
2023-01-11T01:26:37.385Z,0.20
2023-01-11T01:29:04.998Z,0.10
2023-01-11T01:31:32.656Z,0.10
2023-01-11T01:34:00.345Z,0.00
2023-01-11T01:36:28.137Z,0.10
2023-01-11T01:38:55.723Z,0.10
2023-01-11T01:41:23.200Z,0.20
2023-01-11T01:43:53.949Z,0.20
2023-01-11T01:46:26.098Z,0.20
2023-01-11T01:53:52.391Z,0.30
2023-01-11T01:56:28.011Z,0.20
2023-01-11T01:59:01.035Z,0.20
2023-01-11T02:01:47.171Z,0.20
2023-01-11T02:04:21.951Z,0.20
2023-01-11T02:06:50.775Z,0.20
2023-01-11T02:09:41.219Z,0.30
2023-01-11T02:12:09.374Z,0.30
2023-01-11T02:14:40.125Z,0.40
2023-01-11T02:17:09.381Z,0.40
2023-01-11T02:20:11.096Z,0.40
2023-01-11T02:22:47.859Z,0.40
2023-01-11T02:25:33.746Z,0.40
2023-01-11T02:28:31.662Z,0.40
2023-01-11T02:31:03.033Z,0.40
2023-01-11T02:33:41.706Z,0.40
2023-01-11T02:36:39.432Z,0.40
2023-01-11T02:39:31.089Z,0.40
2023-01-11T02:42:30.882Z,0.40
2023-01-11T02:45:21.910Z,0.50
2023-01-11T02:48:19.868Z,0.50
2023-01-11T02:51:00.429Z,0.40
2023-01-11T02:53:49.775Z,0.40
2023-01-11T02:56:21.248Z,0.40
2023-01-11T02:58:52.493Z,0.40
2023-01-11T03:01:22.763Z,0.40
2023-01-11T03:03:51.746Z,0.50
2023-01-11T03:06:31.032Z,0.40
2023-01-11T03:09:13.525Z,0.40
2023-01-11T03:12:37.555Z,0.40
2023-01-11T03:15:24.013Z,0.50
2023-01-11T03:18:13.830Z,0.50
2023-01-11T03:20:49.259Z,0.50
2023-01-11T03:23:33.853Z,0.50
2023-01-11T03:26:13.353Z,0.40
2023-01-11T03:29:01.566Z,0.50
2023-01-11T03:31:45.149Z,0.50
2023-01-11T03:34:32.112Z,0.50
2023-01-11T03:37:04.493Z,0.60
2023-01-11T03:39:47.514Z,0.60
2023-01-11T03:42:20.165Z,0.60
2023-01-11T03:44:53.103Z,0.60
2023-01-11T03:47:23.935Z,0.60
2023-01-11T03:49:56.645Z,0.60
2023-01-11T03:52:29.187Z,0.60
2023-01-11T03:54:58.334Z,0.60
2023-01-11T03:57:36.262Z,0.60
2023-01-11T04:00:05.801Z,0.60
2023-01-11T04:02:40.462Z,0.60
2023-01-11T04:05:10.403Z,0.60
2023-01-11T04:07:38.194Z,0.60
2023-01-11T04:10:06.804Z,0.50
2023-01-11T04:12:37.077Z,0.50
2023-01-11T04:15:05.624Z,0.50
2023-01-11T04:17:33.154Z,0.50
2023-01-11T04:20:00.791Z,0.60
2023-01-11T04:22:28.366Z,0.60
2023-01-11T04:24:55.834Z,0.60
2023-01-11T04:27:23.863Z,0.60
2023-01-11T04:29:51.486Z,0.60
2023-01-11T04:32:19.245Z,0.60
2023-01-11T04:34:47.055Z,0.70
2023-01-11T04:37:14.913Z,0.60
2023-01-11T04:39:42.607Z,0.60
2023-01-11T04:42:18.267Z,0.60
2023-01-11T04:44:50.203Z,0.70
2023-01-11T04:47:20.341Z,0.60
2023-01-11T04:49:48.336Z,0.60
2023-01-11T04:52:18.623Z,0.50
2023-01-11T04:54:47.244Z,0.60
2023-01-11T04:57:17.473Z,0.50
2023-01-11T04:59:48.064Z,0.60
2023-01-11T05:02:16.532Z,0.50
2023-01-11T05:04:44.338Z,0.50
2023-01-11T05:07:12.045Z,0.60
2023-01-11T05:09:40.961Z,0.60
2023-01-11T05:12:08.479Z,0.60
2023-01-11T05:14:36.243Z,0.70
2023-01-11T05:17:04.033Z,0.70
2023-01-11T05:19:31.673Z,0.70
2023-01-11T05:21:59.147Z,0.70
2023-01-11T05:24:26.648Z,0.70
2023-01-11T05:26:54.507Z,0.60
2023-01-11T05:29:22.237Z,0.70
2023-01-11T05:31:50.023Z,0.70
2023-01-11T05:34:17.992Z,0.70
2023-01-11T05:36:45.888Z,0.70
2023-01-11T05:39:14.466Z,0.70
2023-01-11T05:41:42.159Z,0.70
2023-01-11T05:44:32.350Z,0.60
2023-01-11T05:47:00.584Z,0.60
2023-01-11T05:49:28.525Z,0.70
2023-01-11T05:51:56.270Z,0.70
2023-01-11T05:54:23.950Z,0.80
2023-01-11T05:56:51.444Z,0.70
2023-01-11T05:59:19.378Z,0.70
2023-01-11T06:01:47.263Z,0.80
2023-01-11T06:04:15.496Z,0.80
2023-01-11T06:06:43.785Z,0.80
2023-01-11T06:09:11.636Z,0.70
2023-01-11T06:11:39.061Z,0.80
2023-01-11T06:14:07.418Z,0.80
2023-01-11T06:16:34.953Z,0.80
2023-01-11T06:19:02.657Z,0.80
2023-01-11T06:21:30.248Z,0.80
2023-01-11T06:23:57.808Z,0.80
2023-01-11T06:26:25.399Z,0.80
2023-01-11T06:28:53.890Z,0.80
2023-01-11T06:31:21.789Z,0.80
2023-01-11T06:33:49.580Z,0.70
2023-01-11T06:36:17.545Z,0.70
2023-01-11T06:38:45.531Z,0.70
2023-01-11T06:41:13.809Z,0.70
2023-01-11T06:43:42.190Z,0.70
2023-01-11T06:46:13.336Z,0.80
2023-01-11T06:48:47.533Z,0.80
2023-01-11T06:51:16.163Z,0.80
2023-01-11T06:53:46.043Z,0.80
2023-01-11T06:56:18.987Z,0.90
2023-01-11T06:58:48.343Z,0.80
2023-01-11T07:01:18.161Z,0.80
2023-01-11T07:03:46.011Z,0.90
2023-01-11T07:06:14.090Z,0.90
2023-01-11T07:08:42.824Z,1.00
2023-01-11T07:11:10.716Z,1.00
2023-01-11T07:13:38.483Z,1.00
2023-01-11T07:16:08.893Z,1.10
2023-01-11T07:18:37.539Z,1.10
2023-01-11T07:21:05.252Z,1.10
2023-01-11T07:23:32.860Z,1.20
2023-01-11T07:26:00.752Z,1.20
2023-01-11T07:28:30.617Z,1.20
2023-01-11T07:30:59.892Z,1.30
2023-01-11T07:33:28.358Z,1.30
2023-01-11T07:35:56.279Z,1.30
2023-01-11T07:38:24.298Z,1.30
2023-01-11T07:40:52.072Z,1.40
2023-01-11T07:43:23.446Z,1.40
2023-01-11T07:45:51.921Z,1.50
2023-01-11T07:48:25.448Z,1.50
2023-01-11T07:50:53.964Z,1.60
2023-01-11T07:53:25.336Z,1.60
2023-01-11T07:55:54.861Z,1.70
2023-01-11T07:58:22.387Z,1.80
2023-01-11T08:00:50.081Z,1.90
2023-01-11T08:03:17.691Z,1.80
2023-01-11T08:05:51.847Z,2.00
2023-01-11T08:08:21.033Z,2.00
2023-01-11T08:11:09.578Z,2.00
2023-01-11T08:13:55.786Z,2.10
2023-01-11T08:16:24.063Z,2.20
2023-01-11T08:18:53.015Z,2.20
2023-01-11T08:21:21.405Z,2.30
2023-01-11T08:23:48.893Z,2.40
2023-01-11T08:26:18.000Z,2.40
2023-01-11T08:28:46.452Z,2.50
2023-01-11T08:31:14.421Z,2.60
2023-01-11T08:33:42.303Z,2.70
2023-01-11T08:36:11.970Z,2.80
2023-01-11T08:38:39.788Z,2.90
2023-01-11T08:41:10.847Z,3.00
2023-01-11T08:43:41.103Z,3.00
2023-01-11T08:46:10.202Z,3.10
2023-01-11T08:48:37.802Z,3.20
2023-01-11T08:51:05.661Z,3.40
2023-01-11T08:53:33.317Z,3.30
2023-01-11T08:56:00.934Z,3.30
2023-01-11T08:58:28.715Z,3.30
2023-01-11T09:01:02.661Z,3.40
2023-01-11T09:03:31.194Z,3.40
2023-01-11T09:06:00.303Z,3.50
2023-01-11T09:08:28.838Z,3.50
2023-01-11T09:10:56.728Z,3.60
2023-01-11T09:13:24.361Z,3.70
2023-01-11T09:15:56.215Z,3.80
2023-01-11T09:18:26.781Z,3.90
2023-01-11T09:20:55.064Z,4.00
2023-01-11T09:23:24.121Z,4.10
2023-01-11T09:25:51.776Z,4.20
2023-01-11T09:28:19.597Z,4.20
2023-01-11T09:30:47.471Z,4.20
2023-01-11T09:33:15.243Z,4.30
2023-01-11T09:35:43.187Z,4.40
2023-01-11T09:38:15.516Z,4.40
2023-01-11T09:40:57.042Z,4.40
2023-01-11T09:43:27.447Z,4.40
2023-01-11T09:46:00.466Z,4.40
2023-01-11T09:48:44.787Z,4.40
2023-01-11T09:51:16.007Z,4.40
2023-01-11T09:53:50.457Z,4.40
2023-01-11T09:56:39.187Z,4.40
2023-01-11T09:59:38.125Z,4.60
2023-01-11T10:02:38.363Z,4.70
2023-01-11T10:05:35.892Z,4.90
2023-01-11T10:18:30.855Z,5.10
2023-01-11T10:18:33.077Z,5.10
2023-01-11T10:20:44.077Z,5.00
2023-01-11T10:23:25.268Z,5.10
2023-01-11T10:25:58.044Z,5.10
2023-01-11T10:28:46.461Z,5.10
2023-01-11T10:31:51.216Z,5.20
2023-01-11T10:34:56.600Z,5.20
2023-01-11T10:37:49.002Z,5.20
2023-01-11T10:41:13.483Z,5.30
2023-01-11T10:43:45.944Z,5.40
2023-01-11T10:46:21.119Z,5.40
2023-01-11T10:49:00.957Z,5.50
2023-01-11T10:51:37.850Z,5.50
2023-01-11T10:54:22.199Z,5.50
2023-01-11T10:57:05.159Z,5.50
2023-01-11T11:00:10.729Z,5.50
2023-01-11T11:02:52.337Z,5.50
2023-01-11T11:05:23.192Z,5.50
2023-01-11T11:08:05.251Z,5.50
2023-01-11T11:10:58.949Z,5.50
2023-01-11T11:13:49.244Z,5.60
2023-01-11T11:16:22.814Z,5.60
2023-01-11T11:18:58.496Z,5.70
2023-01-11T11:21:32.486Z,5.80
2023-01-11T11:24:03.812Z,6.00
2023-01-11T11:26:38.463Z,6.00
2023-01-11T11:29:08.590Z,6.00
2023-01-11T11:31:42.924Z,6.10
2023-01-11T11:34:18.031Z,6.20
2023-01-11T11:36:51.820Z,6.20
2023-01-11T11:39:20.924Z,6.30
2023-01-11T11:41:51.414Z,6.40
2023-01-11T11:44:37.154Z,6.40
2023-01-11T11:47:07.075Z,6.40
2023-01-11T11:54:07.212Z,6.50
2023-01-11T11:56:37.832Z,6.60
2023-01-11T11:59:09.830Z,6.60
2023-01-11T12:01:44.093Z,6.50
2023-01-11T12:04:18.981Z,6.60
2023-01-11T12:07:07.698Z,6.60
2023-01-11T12:09:37.019Z,6.70
2023-01-11T12:12:05.532Z,6.70
2023-01-11T12:14:35.401Z,6.60
2023-01-11T12:17:23.429Z,6.70
2023-01-11T12:19:52.224Z,6.80
2023-01-11T12:22:29.352Z,6.80
2023-01-11T12:25:25.525Z,6.70
2023-01-11T12:28:28.325Z,6.80
2023-01-11T12:31:07.825Z,6.80
2023-01-11T12:33:49.027Z,6.80
2023-01-11T12:36:46.869Z,6.80
2023-01-11T12:39:24.059Z,6.80
2023-01-11T12:42:10.810Z,6.90
2023-01-11T12:45:09.474Z,6.80
2023-01-11T12:48:09.089Z,6.80
2023-01-11T12:51:01.942Z,6.80
2023-01-11T12:53:48.728Z,6.70
2023-01-11T12:56:37.603Z,6.70
2023-01-11T12:59:17.451Z,6.70
2023-01-11T13:02:16.374Z,6.70
2023-01-11T13:04:53.803Z,6.80
2023-01-11T13:07:42.349Z,6.80
2023-01-11T13:10:45.340Z,6.80
2023-01-11T13:13:19.681Z,6.80
2023-01-11T13:16:13.335Z,6.70
2023-01-11T13:18:57.416Z,6.70
2023-01-11T13:21:33.258Z,6.70
2023-01-11T13:24:10.767Z,6.70
2023-01-11T13:26:42.751Z,6.70
2023-01-11T13:29:31.473Z,6.70
2023-01-11T13:32:02.984Z,6.70
2023-01-11T13:34:40.089Z,6.60
2023-01-11T13:38:00.148Z,6.70
2023-01-11T13:40:35.664Z,6.70
2023-01-11T13:43:16.176Z,6.70
2023-01-11T13:46:03.408Z,6.70
2023-01-11T13:48:41.911Z,6.80
2023-01-11T13:51:19.085Z,6.70
2023-01-11T13:54:08.272Z,6.60
2023-01-11T13:56:47.352Z,6.60
2023-01-11T13:59:23.124Z,6.60
2023-01-11T14:01:53.912Z,6.50
2023-01-11T14:04:28.188Z,6.50
2023-01-11T14:06:58.492Z,6.40
2023-01-11T14:10:11.283Z,6.40
2023-01-11T14:12:57.256Z,6.40
2023-01-11T14:15:37.006Z,6.30
2023-01-11T14:18:18.479Z,6.20
2023-01-11T14:20:58.345Z,6.20
2023-01-11T14:23:37.752Z,6.10
2023-01-11T14:26:20.231Z,6.10
2023-01-11T14:29:03.634Z,6.10
2023-01-11T14:31:41.365Z,6.00
2023-01-11T14:34:37.088Z,6.10
2023-01-11T14:37:19.996Z,6.10
2023-01-11T14:40:13.867Z,6.10
2023-01-11T14:43:06.495Z,6.10
2023-01-11T14:45:46.725Z,6.10
2023-01-11T14:48:23.345Z,6.20
2023-01-11T14:51:01.993Z,6.20
2023-01-11T14:53:35.107Z,6.10
2023-01-11T14:56:02.682Z,6.10
2023-01-11T14:58:32.988Z,6.00
2023-01-11T15:01:00.545Z,6.00
2023-01-11T15:03:38.805Z,6.10
2023-01-11T15:06:14.997Z,6.10
2023-01-11T15:08:52.334Z,6.00
2023-01-11T15:11:25.039Z,5.90
2023-01-11T15:13:59.620Z,5.80
2023-01-11T15:16:48.951Z,5.90
2023-01-11T15:19:25.771Z,5.80
2023-01-11T15:21:55.946Z,5.80
2023-01-11T15:24:32.456Z,6.10
2023-01-11T15:27:01.977Z,6.40
2023-01-11T15:29:33.346Z,6.70
2023-01-11T15:32:16.935Z,6.80
2023-01-11T15:34:47.721Z,7.10
2023-01-11T15:37:32.456Z,7.20
2023-01-11T15:40:19.996Z,7.30
2023-01-11T15:43:12.879Z,7.50
2023-01-11T15:46:00.640Z,7.50
2023-01-11T15:48:47.936Z,7.40
2023-01-11T15:51:24.675Z,7.40
2023-01-11T15:54:15.750Z,7.40
2023-01-11T15:57:01.671Z,7.50
2023-01-11T15:59:58.720Z,7.60
2023-01-11T16:03:04.365Z,7.60
2023-01-11T16:05:37.269Z,7.70
2023-01-11T16:08:31.377Z,7.60
2023-01-11T16:11:01.770Z,7.50
2023-01-11T16:13:53.924Z,7.50
2023-01-11T16:16:27.173Z,7.50
2023-01-11T16:19:18.425Z,7.50
2023-01-11T16:21:50.119Z,7.50
2023-01-11T16:24:21.113Z,7.50
2023-01-11T16:27:02.048Z,7.60
2023-01-11T16:29:36.956Z,7.70
2023-01-11T16:32:19.228Z,7.60
2023-01-11T16:34:53.020Z,7.50
2023-01-11T16:37:39.753Z,7.40
2023-01-11T16:40:21.796Z,7.50
2023-01-11T16:42:58.391Z,7.50
2023-01-11T16:45:41.901Z,7.50
2023-01-11T16:48:16.436Z,7.50
2023-01-11T16:50:56.911Z,7.50
2023-01-11T16:53:27.170Z,7.50
2023-01-11T16:55:56.857Z,7.40
2023-01-11T16:58:30.753Z,7.40
2023-01-11T17:01:09.527Z,7.40
2023-01-11T17:03:43.225Z,7.40
2023-01-11T17:06:16.821Z,7.40
2023-01-11T17:08:56.972Z,7.40
2023-01-11T17:11:35.255Z,7.40
2023-01-11T17:14:21.941Z,7.30
2023-01-11T17:16:52.698Z,7.30
2023-01-11T17:19:24.869Z,7.30
2023-01-11T17:21:58.799Z,7.30
2023-01-11T17:24:28.383Z,7.30
2023-01-11T17:27:00.957Z,7.30
2023-01-11T17:29:42.684Z,7.30
2023-01-11T17:32:30.296Z,7.20
2023-01-11T17:35:00.984Z,7.30
2023-01-11T17:37:28.672Z,7.20
2023-01-11T17:39:59.319Z,7.20
2023-01-11T17:42:45.871Z,7.20
2023-01-11T17:45:24.882Z,7.10
2023-01-11T17:47:54.578Z,7.20
2023-01-11T17:50:32.249Z,7.20
2023-01-11T17:53:26.633Z,7.20
2023-01-11T17:56:05.572Z,7.20
2023-01-11T17:58:34.987Z,7.20
2023-01-11T18:01:09.359Z,7.10
2023-01-11T18:03:44.281Z,7.10
2023-01-11T18:06:43.104Z,7.00
2023-01-11T18:09:29.294Z,7.10
2023-01-11T18:12:24.383Z,7.10
2023-01-11T18:15:00.372Z,7.10
2023-01-11T18:17:42.165Z,7.10
2023-01-11T18:20:15.845Z,7.10
2023-01-11T18:22:59.447Z,7.10
2023-01-11T18:25:29.457Z,7.10
2023-01-11T18:28:12.518Z,7.10
2023-01-11T18:30:47.698Z,7.10
2023-01-11T18:33:29.813Z,7.10
2023-01-11T18:36:03.547Z,7.10
2023-01-11T18:38:34.041Z,7.10
2023-01-11T18:41:27.193Z,7.20
2023-01-11T18:43:55.246Z,7.10
2023-01-11T18:46:23.042Z,7.10
2023-01-11T18:48:50.702Z,7.00
2023-01-11T18:51:25.556Z,6.90
2023-01-11T18:53:53.225Z,6.90
2023-01-11T18:56:20.956Z,6.90
2023-01-11T18:58:48.436Z,6.90
2023-01-11T19:01:16.570Z,6.90
2023-01-11T19:03:46.093Z,6.80
2023-01-11T19:06:14.101Z,6.80
2023-01-11T19:08:41.761Z,6.80
2023-01-11T19:11:14.042Z,6.80
2023-01-11T19:13:41.575Z,6.80
2023-01-11T19:16:09.625Z,6.70
2023-01-11T19:18:38.123Z,6.70
2023-01-11T19:21:11.004Z,6.70
2023-01-11T19:23:38.558Z,6.60
2023-01-11T19:26:06.326Z,6.50
2023-01-11T19:28:39.417Z,6.50
2023-01-11T19:31:08.705Z,6.50
2023-01-11T19:33:36.222Z,6.50
2023-01-11T19:36:21.054Z,6.40
2023-01-11T19:38:51.564Z,6.40
2023-01-11T19:41:19.306Z,6.30
2023-01-11T19:43:47.306Z,6.30
2023-01-11T19:46:30.192Z,6.30
2023-01-11T19:48:59.081Z,6.30
2023-01-11T19:51:26.655Z,6.40
2023-01-11T19:53:54.426Z,6.30
2023-01-11T19:56:22.000Z,6.20
2023-01-11T19:58:49.963Z,6.20
2023-01-11T20:01:19.907Z,6.20
2023-01-11T20:03:47.397Z,6.10
2023-01-11T20:06:15.095Z,6.00
2023-01-11T20:08:42.881Z,6.10
2023-01-11T20:11:15.424Z,6.00
2023-01-11T20:13:45.444Z,6.10
2023-01-11T20:16:14.062Z,6.00
2023-01-11T20:18:42.849Z,6.00
2023-01-11T20:21:11.147Z,6.00
2023-01-11T20:23:39.267Z,6.00
2023-01-11T20:26:14.908Z,5.90
2023-01-11T20:28:44.486Z,6.00
2023-01-11T20:31:12.288Z,6.00
2023-01-11T20:33:40.992Z,5.90
2023-01-11T20:36:17.693Z,5.90
2023-01-11T20:38:46.013Z,5.90
2023-01-11T20:41:42.487Z,5.90
2023-01-11T20:44:11.643Z,5.90
2023-01-11T20:46:39.591Z,5.80
2023-01-11T20:49:08.336Z,5.80
2023-01-11T20:51:36.740Z,5.70
2023-01-11T20:54:06.398Z,5.70
2023-01-11T20:56:42.303Z,5.70
2023-01-11T21:01:38.278Z,5.80
2023-01-11T21:04:11.096Z,5.80
2023-01-11T21:06:41.785Z,5.80
2023-01-11T21:09:11.172Z,5.70
2023-01-11T21:11:40.208Z,5.70
2023-01-11T21:14:11.962Z,5.60
2023-01-11T21:16:44.365Z,5.60
2023-01-11T21:19:14.243Z,5.60
2023-01-11T21:21:43.314Z,5.60
2023-01-11T21:24:13.917Z,5.70
2023-01-11T21:27:49.600Z,5.80
2023-01-11T21:30:18.143Z,5.90
2023-01-11T21:32:47.346Z,5.90
2023-01-11T21:35:15.999Z,5.90
2023-01-11T21:37:44.163Z,6.00
2023-01-11T21:40:14.396Z,5.90
2023-01-11T21:42:45.180Z,5.90
2023-01-11T21:45:17.497Z,5.90
2023-01-11T21:47:45.539Z,5.90
2023-01-11T21:50:13.892Z,6.00
2023-01-11T21:52:41.511Z,5.90
2023-01-11T21:55:11.204Z,5.90
2023-01-11T21:58:11.198Z,6.00
2023-01-11T22:00:39.750Z,6.00
2023-01-11T22:03:07.311Z,6.00
2023-01-11T22:05:35.077Z,6.10
2023-01-11T22:08:03.255Z,6.00
2023-01-11T22:10:31.013Z,6.00
2023-01-11T22:12:58.653Z,6.00
2023-01-11T22:15:26.228Z,6.10
2023-01-11T22:17:54.005Z,6.10
2023-01-11T22:20:21.551Z,6.10
2023-01-11T22:22:49.322Z,6.00
2023-01-11T22:25:23.026Z,6.00
2023-01-11T22:27:50.573Z,6.10
2023-01-11T22:30:18.345Z,6.10
2023-01-11T22:32:47.938Z,6.10
2023-01-11T22:35:15.487Z,6.00
2023-01-11T22:37:43.217Z,6.10
2023-01-11T22:40:11.760Z,6.10
2023-01-11T22:42:39.514Z,6.10
2023-01-11T22:45:10.107Z,6.10
2023-01-11T22:47:37.685Z,6.10
2023-01-11T22:50:05.747Z,6.10
2023-01-11T22:52:33.504Z,6.10
2023-01-11T22:55:01.097Z,6.10
2023-01-11T22:57:28.797Z,6.10
2023-01-11T22:59:58.786Z,6.00
2023-01-11T23:02:26.770Z,6.00
2023-01-11T23:04:54.292Z,6.00
2023-01-11T23:07:21.781Z,5.90
2023-01-11T23:09:49.597Z,6.00
2023-01-11T23:12:35.808Z,6.00
2023-01-11T23:15:03.734Z,6.00
2023-01-11T23:17:31.248Z,5.90
2023-01-11T23:19:58.860Z,5.90
2023-01-11T23:22:26.664Z,5.90
2023-01-11T23:24:54.301Z,5.90
2023-01-11T23:27:21.934Z,5.90
2023-01-11T23:29:49.441Z,5.90
2023-01-11T23:32:16.988Z,5.80
2023-01-11T23:34:44.768Z,5.60
2023-01-11T23:37:12.276Z,5.60
2023-01-11T23:39:39.713Z,5.50
2023-01-11T23:42:25.624Z,5.50
2023-01-11T23:44:56.935Z,5.50
2023-01-11T23:47:25.904Z,5.40
2023-01-11T23:49:58.327Z,5.40
2023-01-11T23:52:31.487Z,5.40
2023-01-11T23:54:59.866Z,5.30
2023-01-11T23:57:27.460Z,5.10
2023-01-11T23:59:55.039Z,5.10
